Terminal Aerodrome Forecast
Issued by NWS

Home | Current Version | Previous Version | Text Only | Print | Product List | Glossary On
Versions: 1 2 3 4 5 6 7 8 9 10 11 12 13 14 15 16 17 18 19 20 21
000
FTUS43 KLSX 140500
TAFUIN
TAF
KUIN 140520Z 1406/1506 13004KT P6SM BKN250
     FM141200 15006KT P6SM SCT080
     FM141800 18005KT P6SM SCT080
     FM150100 13005KT P6SM SCT050 BKN150=

USA.gov is the U.S. government's official web portal to all federal, state and local government web resources and services.